»·PEaware :: N838JH KMYF-KSBA

N838JH :: KMYF-KSBA

FLIGHT INFORMATION

Flight Status: Arrived
Operator: Privately registered:
United States
More flights under this callsign
Pilot: Skye D. (10623)
Aircraft: BEECH AIRCRAFT SUPER KING AIR COMMUTER
(BE20)
More flights by this aircraft type
Origin: KMYF Montgomery
United States
Destination: KSBA Santa Barbara Mun
United States
More flights between these airports :: More routes between these airports
Route: +MZB293R V27 SXC V208 VTU VTU282R KWANG
File this flight plan on PilotEdge
Remarks: SANN36
Altitude:
(Current/Filed)
8,000ft
Speed:
(Current/Filed)
240kts
Departed: 04-Mar-18 10:26 AM
Arrived: 04-Mar-18 11:28 AM
Distance/Time
Traveled:
166nm/1:02
Distance/Time
To Go:
Arrived

Flight Plot

Page will automatically refresh every two minutes.


Map Options




Map Legend


Flown Route
Filed Route
Departure Airport
Arrival Airport
Navaid (VOR, NDB)
Fix

Horizontal Profiles

Position Reports

Time Latitude Longitude Heading Altitude Ground
Speed
04-Mar-18 10:22 32.813297 -117.142020 115 430ft 0kts
04-Mar-18 10:23 32.813166 -117.141613 92 430ft 5kts
04-Mar-18 10:24 32.813847 -117.140892 24 430ft 2kts
04-Mar-18 10:25 32.813902 -117.140861 24 430ft 0kts
04-Mar-18 10:26 32.814053 -117.140777 26 430ft 7kts
04-Mar-18 10:27 32.813494 -117.138614 115 430ft 12kts
04-Mar-18 10:28 32.811706 -117.134145 119 430ft 18kts
04-Mar-18 10:29 32.812038 -117.131455 22 430ft 4kts
04-Mar-18 10:30 32.812050 -117.131450 22 430ft 0kts
04-Mar-18 10:31 32.812066 -117.131441 22 430ft 1kts
04-Mar-18 10:32 32.812909 -117.131351 298 430ft 2kts
04-Mar-18 10:33 32.821126 -117.152355 288 1192ft 134kts
04-Mar-18 10:34 32.826295 -117.189998 279 3042ft 157kts
04-Mar-18 10:35 32.832073 -117.230004 281 5048ft 154kts
04-Mar-18 10:36 32.838885 -117.273849 282 6884ft 150kts
04-Mar-18 10:37 32.844576 -117.316088 281 7907ft 175kts
04-Mar-18 10:38 32.864829 -117.363462 302 7962ft 201kts
04-Mar-18 10:39 32.892300 -117.411432 302 7956ft 209kts
04-Mar-18 10:40 32.920087 -117.459068 303 7955ft 210kts
04-Mar-18 10:41 32.948180 -117.506819 303 7954ft 210kts
04-Mar-18 10:42 32.977954 -117.557514 303 7954ft 209kts
04-Mar-18 10:43 33.006189 -117.605643 303 7954ft 209kts
04-Mar-18 10:44 33.033626 -117.652514 302 7954ft 209kts
04-Mar-18 10:45 33.062058 -117.701512 302 7979ft 210kts
04-Mar-18 10:46 33.090826 -117.750749 302 7987ft 210kts
04-Mar-18 10:47 33.117347 -117.795420 302 7990ft 211kts
04-Mar-18 10:48 33.148774 -117.838136 310 7990ft 212kts
04-Mar-18 10:49 33.182743 -117.881102 310 7989ft 212kts
04-Mar-18 10:50 33.216339 -117.923600 310 7989ft 212kts
04-Mar-18 10:51 33.251267 -117.967810 310 7973ft 213kts
04-Mar-18 10:52 33.286666 -118.012830 312 7970ft 213kts
04-Mar-18 10:53 33.322972 -118.058825 312 7969ft 213kts
04-Mar-18 10:54 33.336847 -118.115963 281 7969ft 216kts
04-Mar-18 10:55 33.343760 -118.174484 281 7969ft 216kts
04-Mar-18 10:56 33.350530 -118.233829 281 7968ft 216kts
04-Mar-18 10:57 33.358166 -118.293204 282 7968ft 216kts
04-Mar-18 10:58 33.366037 -118.353545 282 7967ft 216kts
04-Mar-18 10:59 33.374272 -118.414926 289 7957ft 214kts
04-Mar-18 11:00 33.405026 -118.462705 309 7967ft 212kts
04-Mar-18 11:01 33.437900 -118.509851 310 7966ft 212kts
04-Mar-18 11:02 33.469972 -118.555651 310 7966ft 212kts
04-Mar-18 11:03 33.502142 -118.601588 310 7965ft 212kts
04-Mar-18 11:04 33.534075 -118.647228 310 7965ft 212kts
04-Mar-18 11:05 33.568173 -118.695566 309 7961ft 213kts
04-Mar-18 11:06 33.606845 -118.740676 315 7942ft 213kts
04-Mar-18 11:07 33.647767 -118.785499 316 7942ft 213kts
04-Mar-18 11:08 33.688157 -118.829582 315 7951ft 213kts
04-Mar-18 11:09 33.728531 -118.873711 315 7972ft 213kts
04-Mar-18 11:10 33.764751 -118.913430 316 7977ft 213kts
04-Mar-18 11:11 33.804612 -118.957037 316 7977ft 213kts
04-Mar-18 11:12 33.845185 -119.001507 315 7976ft 213kts
04-Mar-18 11:13 33.883215 -119.043297 315 7976ft 213kts
04-Mar-18 11:14 33.920351 -119.084150 315 7975ft 213kts
04-Mar-18 11:15 33.952892 -119.119987 315 7975ft 213kts
04-Mar-18 11:16 33.990643 -119.161590 315 7975ft 213kts
04-Mar-18 11:17 34.029456 -119.204429 315 7974ft 213kts
04-Mar-18 11:18 34.066666 -119.245538 315 7706ft 210kts
04-Mar-18 11:19 34.104363 -119.287385 316 6480ft 211kts
04-Mar-18 11:20 34.140196 -119.327130 316 5508ft 210kts
04-Mar-18 11:21 34.177173 -119.367970 317 4609ft 209kts
04-Mar-18 11:22 34.214969 -119.410008 317 3972ft 194kts
04-Mar-18 11:23 34.249339 -119.448166 318 3970ft 195kts
04-Mar-18 11:24 34.284751 -119.487381 318 3972ft 207kts
04-Mar-18 11:25 34.316381 -119.533091 297 3810ft 199kts
04-Mar-18 11:26 34.336751 -119.586118 298 2793ft 199kts
04-Mar-18 11:27 34.355594 -119.634607 296 2088ft 190kts
04-Mar-18 11:28 34.372285 -119.677405 295 2064ft 168kts
04-Mar-18 11:29 34.386527 -119.713000 304 1979ft 131kts
04-Mar-18 11:30 34.400392 -119.739892 293 1745ft 128kts
04-Mar-18 11:31 34.411980 -119.767842 291 1265ft 115kts
04-Mar-18 11:32 34.422387 -119.794154 292 872ft 114kts
04-Mar-18 11:33 34.428247 -119.816315 266 354ft 91kts
04-Mar-18 11:34 34.427829 -119.837940 266 17ft 66kts
04-Mar-18 11:35 34.426944 -119.841405 165 17ft 0kts
04-Mar-18 11:36 34.426687 -119.839806 87 17ft 16kts
04-Mar-18 11:37 34.424475 -119.837662 166 17ft 19kts
04-Mar-18 11:38 34.422677 -119.836940 79 17ft 6kts
04-Mar-18 11:39 34.422724 -119.836177 178 17ft 0kts
04-Mar-18 11:40 34.422724 -119.836177 178 17ft 0kts

Navigation Log

Ident Type
Flight plan parsing failed, navigation log unavailable